Time;durP1;ratioP1;P1;durP2;ratioP2;P2;SDS_P1;SDS_P2;PMS_P1;PMS_P2;Temp;Humidity;BMP_temperature;BMP_pressure;BME280_temperature;BME280_humidity;BME280_pressure;Samples;Min_cycle;Max_cycle;Signal;HPM_P1;HPM_P2
2022/06/30 00:01:24;;;;;;;17.10;15.60;;;;;;;18.37;100.00;99294.41;5091232;28;20052;-49
2022/06/30 00:03:50;;;;;;;17.48;15.98;;;;;;;18.28;100.00;99270.72;5090990;28;20048;-50
2022/06/30 00:06:16;;;;;;;16.95;15.50;;;;;;;18.06;100.00;99264.63;5091084;28;20408;-50
2022/06/30 00:08:42;;;;;;;17.73;15.93;;;;;;;18.26;100.00;99264.00;5090963;28;20056;-52
2022/06/30 00:11:09;;;;;;;18.25;16.38;;;;;;;18.25;100.00;99262.44;5090856;28;20048;-51
2022/06/30 00:13:38;;;;;;;17.33;15.82;;;;;;;18.23;100.00;99271.19;5090880;28;20067;-50
2022/06/30 00:16:05;;;;;;;17.90;16.35;;;;;;;18.31;100.00;99271.88;5090855;28;20060;-50
2022/06/30 00:18:32;;;;;;;16.95;12.90;;;;;;;18.14;100.00;99262.56;5090906;28;20060;-53
2022/06/30 00:20:58;;;;;;;18.35;16.42;;;;;;;18.07;100.00;99246.78;5090731;28;20059;-50
2022/06/30 00:23:24;;;;;;;17.48;15.77;;;;;;;18.09;100.00;99238.84;5090970;28;20184;-50
2022/06/30 00:25:51;;;;;;;16.45;14.98;;;;;;;18.13;100.00;99241.56;5090532;28;20051;-49
2022/06/30 00:28:19;;;;;;;15.60;12.48;;;;;;;18.16;100.00;99243.53;5090801;28;20054;-50
2022/06/30 00:30:47;;;;;;;17.67;16.17;;;;;;;18.16;100.00;99240.75;5090506;28;20048;-50
2022/06/30 00:33:13;;;;;;;16.15;14.85;;;;;;;18.19;100.00;99244.66;5090660;28;20055;-50
2022/06/30 00:35:40;;;;;;;15.73;14.15;;;;;;;18.13;100.00;99246.31;5090442;28;20054;-52
2022/06/30 00:38:06;;;;;;;16.45;14.93;;;;;;;18.14;100.00;99251.47;5090364;28;20059;-50
2022/06/30 00:40:35;;;;;;;15.85;14.27;;;;;;;18.12;100.00;99245.53;5090912;28;20048;-50
2022/06/30 00:43:01;;;;;;;15.35;13.88;;;;;;;18.18;100.00;99257.75;5090588;28;20047;-51
2022/06/30 00:45:27;;;;;;;16.30;14.82;;;;;;;18.25;100.00;99263.22;5090486;28;20163;-53
2022/06/30 00:47:54;;;;;;;16.33;14.82;;;;;;;18.18;100.00;99263.31;5089875;28;20106;-53
2022/06/30 00:50:21;;;;;;;16.05;14.65;;;;;;;18.16;100.00;99264.91;5090449;28;20571;-53
2022/06/30 00:52:50;;;;;;;16.35;14.70;;;;;;;18.18;100.00;99266.06;5090481;28;20058;-51
2022/06/30 00:55:19;;;;;;;15.95;14.48;;;;;;;18.20;100.00;99274.78;5090253;28;20054;-50
2022/06/30 00:57:46;;;;;;;15.02;13.73;;;;;;;18.09;100.00;99282.41;5090157;28;20044;-54
2022/06/30 01:00:13;;;;;;;17.40;15.80;;;;;;;18.11;100.00;99282.81;5090224;28;20052;-50
2022/06/30 01:02:40;;;;;;;17.08;15.35;;;;;;;18.21;100.00;99286.66;5090162;28;20138;-50
2022/06/30 01:05:08;;;;;;;18.05;16.40;;;;;;;18.18;100.00;99279.16;5090186;28;20048;-51
2022/06/30 01:07:35;;;;;;;17.80;16.35;;;;;;;18.20;100.00;99291.44;5090076;28;20079;-51
2022/06/30 01:12:46;;;;;;;17.88;16.38;;;;;;;18.18;100.00;99290.25;5090195;28;20100;-50
2022/06/30 01:15:14;;;;;;;17.70;16.10;;;;;;;18.20;100.00;99291.44;5089914;28;20575;-52
2022/06/30 01:17:41;;;;;;;16.45;14.90;;;;;;;18.14;100.00;99295.84;5089847;28;20446;-50
2022/06/30 01:20:09;;;;;;;20.52;14.38;;;;;;;18.11;100.00;99291.13;5089826;28;20147;-50
2022/06/30 01:22:37;;;;;;;19.23;17.33;;;;;;;18.07;100.00;99295.94;5090073;28;20431;-51
2022/06/30 01:25:03;;;;;;;17.30;15.90;;;;;;;18.17;100.00;99286.72;5089772;28;20089;-52
2022/06/30 01:27:29;;;;;;;20.48;18.65;;;;;;;18.04;100.00;99291.22;5089884;28;20101;-53
2022/06/30 01:29:57;;;;;;;21.50;19.52;;;;;;;18.00;100.00;99285.69;5089745;28;20059;-53
2022/06/30 01:32:24;;;;;;;20.40;18.70;;;;;;;18.04;100.00;99280.13;5089512;28;20130;-53
2022/06/30 01:34:50;;;;;;;18.48;16.88;;;;;;;18.07;100.00;99280.06;5089588;28;20086;-51
2022/06/30 01:37:17;;;;;;;20.48;18.67;;;;;;;18.10;100.00;99286.78;5089815;28;20048;-51
2022/06/30 01:39:44;;;;;;;21.13;19.10;;;;;;;18.11;100.00;99303.00;5089810;28;20104;-52
2022/06/30 01:42:10;;;;;;;20.08;18.25;;;;;;;17.97;100.00;99280.19;5089580;28;20507;-52
2022/06/30 01:44:37;;;;;;;23.75;21.48;;;;;;;17.92;100.00;99275.88;5089785;28;20048;-53
2022/06/30 01:47:04;;;;;;;20.98;19.10;;;;;;;18.04;100.00;99280.13;5089509;28;20052;-52
2022/06/30 01:49:30;;;;;;;21.02;19.27;;;;;;;18.02;100.00;99285.28;5089786;28;20056;-54
2022/06/30 01:51:56;;;;;;;21.20;19.30;;;;;;;18.05;100.00;99285.22;5089496;28;20052;-53
2022/06/30 01:54:23;;;;;;;21.13;19.30;;;;;;;18.00;100.00;99284.91;5089462;28;20051;-50
2022/06/30 01:56:50;;;;;;;22.08;20.10;;;;;;;18.04;100.00;99285.66;5089520;28;20411;-51
2022/06/30 01:59:17;;;;;;;19.77;17.90;;;;;;;18.04;100.00;99292.00;5089290;28;20422;-52
2022/06/30 02:01:43;;;;;;;19.25;17.65;;;;;;;18.10;100.00;99295.13;5092260;28;20087;-50
2022/06/30 02:06:50;;;;;;;19.75;18.05;;;;;;;18.20;100.00;99293.44;5083971;28;20531;-53
2022/06/30 02:09:16;;;;;;;22.10;14.82;;;;;;;18.29;100.00;99296.47;5093263;28;20094;-51
2022/06/30 02:11:42;;;;;;;18.02;16.42;;;;;;;18.25;100.00;99299.28;5092924;28;20415;-50
2022/06/30 02:14:09;;;;;;;20.45;18.65;;;;;;;18.30;100.00;99298.84;5093096;28;20143;-51
2022/06/30 02:16:36;;;;;;;18.80;17.30;;;;;;;18.19;100.00;99302.94;5093113;28;20048;-52
2022/06/30 02:19:02;;;;;;;17.13;15.70;;;;;;;18.25;100.00;99298.50;5092713;28;20056;-53
2022/06/30 02:21:28;;;;;;;21.42;19.35;;;;;;;18.24;100.00;99300.50;5092534;28;20548;-51
2022/06/30 02:23:55;;;;;;;20.75;18.95;;;;;;;18.44;100.00;99292.34;5092634;28;20074;-52
2022/06/30 02:26:21;;;;;;;18.60;16.85;;;;;;;18.50;100.00;99296.25;5092424;28;20044;-54
2022/06/30 02:28:47;;;;;;;18.45;16.95;;;;;;;18.62;100.00;99308.78;5092465;28;20144;-49
2022/06/30 02:31:14;;;;;;;20.42;18.50;;;;;;;18.63;100.00;99321.47;5092486;28;20442;-50
2022/06/30 02:33:41;;;;;;;20.05;18.23;;;;;;;18.62;100.00;99324.66;5092528;28;20142;-53
2022/06/30 02:36:07;;;;;;;20.77;18.88;;;;;;;18.66;100.00;99330.94;5092626;28;20075;-51
2022/06/30 02:38:34;;;;;;;19.88;17.92;;;;;;;18.61;100.00;99334.97;5092574;28;20500;-54
2022/06/30 02:41:00;;;;;;;19.10;17.38;;;;;;;18.67;100.00;99338.88;5092198;28;20047;-52
2022/06/30 02:43:27;;;;;;;21.02;19.30;;;;;;;18.67;100.00;99346.41;5092436;28;20048;-53
2022/06/30 02:45:53;;;;;;;31.67;17.00;;;;;;;18.68;100.00;99353.53;5092313;28;20507;-51
2022/06/30 02:48:20;;;;;;;24.73;22.13;;;;;;;18.55;100.00;99356.06;5092230;28;20048;-53
2022/06/30 02:50:46;;;;;;;22.17;16.02;;;;;;;18.48;100.00;99358.91;5092135;28;20062;-52
2022/06/30 02:53:12;;;;;;;23.58;21.27;;;;;;;18.56;100.00;99352.09;5092207;28;20047;-55
2022/06/30 02:55:39;;;;;;;18.13;15.32;;;;;;;18.46;100.00;99353.78;5092250;28;20139;-52
2022/06/30 02:58:05;;;;;;;30.63;21.52;;;;;;;18.77;100.00;99353.84;5092025;28;20044;-51
2022/06/30 03:00:31;;;;;;;27.48;21.17;;;;;;;18.70;100.00;99360.25;5092196;28;20209;-53
2022/06/30 03:02:58;;;;;;;20.88;18.85;;;;;;;18.76;100.00;99374.47;5091945;28;20052;-53
2022/06/30 03:05:25;;;;;;;28.60;17.08;;;;;;;18.92;100.00;99382.22;5092060;28;20052;-51
2022/06/30 03:07:51;;;;;;;21.55;19.27;;;;;;;18.87;100.00;99385.47;5091940;28;20048;-50
2022/06/30 03:10:17;;;;;;;21.15;18.92;;;;;;;19.02;100.00;99381.31;5092092;28;20052;-50
2022/06/30 03:12:44;;;;;;;36.35;20.45;;;;;;;19.05;100.00;99400.72;5091370;28;20044;-50
2022/06/30 03:15:10;;;;;;;18.50;15.02;;;;;;;19.13;100.00;99409.75;5091998;28;20052;-50
2022/06/30 03:17:37;;;;;;;19.33;17.63;;;;;;;19.21;100.00;99422.34;5091911;28;20058;-50
2022/06/30 03:20:03;;;;;;;19.83;18.02;;;;;;;19.01;100.00;99427.75;5091714;28;20048;-50
2022/06/30 03:22:30;;;;;;;16.50;14.13;;;;;;;19.22;100.00;99425.91;5091597;28;20589;-51
2022/06/30 03:24:57;;;;;;;19.52;17.73;;;;;;;19.36;100.00;99444.38;5091573;28;20055;-50
2022/06/30 03:27:23;;;;;;;15.43;13.82;;;;;;;19.39;100.00;99455.47;5091495;28;20052;-50
2022/06/30 03:29:49;;;;;;;17.75;16.15;;;;;;;19.36;100.00;99470.22;5091504;28;20047;-51
2022/06/30 03:32:16;;;;;;;18.80;17.02;;;;;;;19.56;100.00;99489.00;5091500;28;20054;-51
2022/06/30 03:34:42;;;;;;;16.83;15.40;;;;;;;19.48;100.00;99505.78;5091709;28;20056;-51
2022/06/30 03:37:08;;;;;;;15.93;13.55;;;;;;;19.26;100.00;99490.59;5091771;28;20131;-51
2022/06/30 03:39:35;;;;;;;19.33;17.25;;;;;;;19.68;100.00;99511.50;5091529;28;20055;-50
2022/06/30 03:42:01;;;;;;;18.95;17.42;;;;;;;19.70;100.00;99534.16;5091768;28;20466;-51
2022/06/30 03:44:27;;;;;;;14.88;13.23;;;;;;;19.73;100.00;99543.66;5091613;28;20576;-50
2022/06/30 03:46:54;;;;;;;17.27;15.68;;;;;;;19.74;100.00;99565.47;5091663;28;20105;-50
2022/06/30 03:49:20;;;;;;;18.02;16.33;;;;;;;19.90;100.00;99564.09;5091279;28;20539;-52
2022/06/30 03:51:46;;;;;;;18.70;17.10;;;;;;;19.99;100.00;99572.69;5091231;28;20572;-49
2022/06/30 03:54:13;;;;;;;17.55;16.02;;;;;;;19.92;100.00;99593.06;5090974;28;20496;-50
2022/06/30 03:56:40;;;;;;;18.13;16.40;;;;;;;19.73;100.00;99591.72;5091214;28;20524;-50
2022/06/30 03:59:06;;;;;;;18.80;17.20;;;;;;;20.05;100.00;99584.16;5091289;28;20056;-50
2022/06/30 04:01:32;;;;;;;18.73;17.00;;;;;;;19.92;100.00;99587.47;5091116;28;20051;-51
2022/06/30 04:03:58;;;;;;;16.92;15.43;;;;;;;20.11;100.00;99583.25;5091148;28;20048;-51
2022/06/30 04:06:25;;;;;;;17.58;16.17;;;;;;;20.15;100.00;99594.34;5091041;28;20105;-51
2022/06/30 04:08:51;;;;;;;15.80;14.20;;;;;;;20.49;100.00;99608.16;5090982;28;20052;-54
2022/06/30 04:11:17;;;;;;;20.35;18.00;;;;;;;20.66;100.00;99640.56;5090928;28;20087;-51
2022/06/30 04:13:44;;;;;;;16.77;15.38;;;;;;;20.27;100.00;99659.81;5091079;28;20047;-52
2022/06/30 04:16:10;;;;;;;17.17;15.63;;;;;;;20.51;100.00;99647.53;5090725;28;20055;-54
2022/06/30 04:18:37;;;;;;;16.35;15.05;;;;;;;20.77;100.00;99651.53;5090812;28;20048;-54
2022/06/30 04:21:03;;;;;;;16.98;15.48;;;;;;;21.04;100.00;99692.50;5090610;28;20139;-54
2022/06/30 04:23:29;;;;;;;17.05;15.55;;;;;;;21.42;100.00;99711.81;5089575;28;20552;-54
2022/06/30 04:25:55;;;;;;;14.68;13.48;;;;;;;21.82;100.00;99729.41;5090603;28;20483;-54
2022/06/30 04:28:22;;;;;;;15.38;14.07;;;;;;;22.50;100.00;99758.81;5090557;28;20048;-55
2022/06/30 04:33:33;;;;;;;14.20;12.80;;;;;;;22.91;100.00;99754.69;5090634;28;20051;-53
2022/06/30 04:35:59;;;;;;;13.40;12.35;;;;;;;23.41;100.00;99740.31;5090661;28;20485;-52
2022/06/30 04:38:26;;;;;;;14.40;13.20;;;;;;;24.50;100.00;99596.84;5090309;28;20044;-54
2022/06/30 04:43:36;;;;;;;12.52;11.25;;;;;;;25.76;100.00;99220.63;5090679;28;20548;-51
2022/06/30 04:46:03;;;;;;;11.30;10.30;;;;;;;26.31;100.00;99064.50;5090369;28;20044;-54
2022/06/30 04:48:29;;;;;;;12.43;11.25;;;;;;;26.68;100.00;98944.97;5090283;28;20091;-53
2022/06/30 04:50:55;;;;;;;10.98;10.18;;;;;;;26.02;100.00;99018.88;5090202;28;20080;-54
2022/06/30 04:53:22;;;;;;;12.40;11.30;;;;;;;26.88;100.00;98890.13;5090450;28;20465;-55
2022/06/30 04:55:49;;;;;;;11.80;10.80;;;;;;;26.52;100.00;98695.22;5090271;28;20070;-54
2022/06/30 04:58:15;;;;;;;11.50;10.45;;;;;;;27.06;100.00;98805.56;5090393;28;20148;-55
2022/06/30 05:00:41;;;;;;;12.15;10.30;;;;;;;27.15;100.00;98743.56;5089920;28;20582;-54
2022/06/30 05:03:08;;;;;;;11.35;10.35;;;;;;;27.62;100.00;98676.13;5090177;28;20048;-52
2022/06/30 05:05:34;;;;;;;12.13;10.18;;;;;;;27.10;100.00;98679.53;5090022;28;20434;-55
2022/06/30 05:08:01;;;;;;;11.88;10.77;;;;;;;27.37;100.00;98657.94;5090170;28;20180;-55
2022/06/30 05:10:27;;;;;;;10.90;9.75;;;;;;;26.37;100.00;98790.00;5089915;28;20048;-55
2022/06/30 05:12:53;;;;;;;11.45;10.45;;;;;;;26.52;100.00;98894.81;5090014;28;20499;-54
2022/06/30 05:15:20;;;;;;;12.00;10.90;;;;;;;25.94;100.00;99067.44;5089779;28;20047;-54
2022/06/30 05:17:46;;;;;;;11.80;10.82;;;;;;;26.31;100.00;98995.00;5089804;28;20110;-54
2022/06/30 05:20:13;;;;;;;11.40;10.38;;;;;;;26.83;100.00;98840.19;5089570;28;20147;-55
2022/06/30 05:22:39;;;;;;;12.05;11.05;;;;;;;25.84;100.00;99046.25;5089857;28;20162;-54
2022/06/30 05:27:50;;;;;;;11.63;10.73;;;;;;;26.72;100.00;98883.72;5089785;28;20059;-54
2022/06/30 05:30:17;;;;;;;10.68;9.80;;;;;;;27.20;100.00;98765.41;5089725;28;20052;-55
2022/06/30 05:32:43;;;;;;;10.32;9.32;;;;;;;27.59;100.00;98655.41;5089504;28;20048;-55
2022/06/30 05:35:10;;;;;;;10.73;9.25;;;;;;;27.54;100.00;98579.31;5092102;28;20109;-54
2022/06/30 05:37:37;;;;;;;11.48;10.40;;;;;;;26.92;100.00;98627.09;5093036;28;20048;-55
2022/06/30 05:40:03;;;;;;;14.80;10.48;;;;;;;26.99;100.00;98727.19;5093164;28;20071;-54
2022/06/30 05:42:30;;;;;;;12.48;9.55;;;;;;;27.24;100.00;98708.91;5093050;28;20062;-55
2022/06/30 05:44:56;;;;;;;11.63;10.27;;;;;;;27.03;100.00;98589.94;5092931;28;20109;-52
2022/06/30 05:47:22;;;;;;;10.07;9.13;;;;;;;28.10;100.00;98456.69;5092984;28;20056;-53
2022/06/30 05:49:48;;;;;;;11.82;9.32;;;;;;;27.64;100.00;98546.91;5092994;28;20054;-55
2022/06/30 05:52:15;;;;;;;11.32;9.18;;;;;;;26.85;100.00;98626.75;5093149;28;20084;-55
2022/06/30 05:54:42;;;;;;;10.40;9.48;;;;;;;27.42;100.00;98612.97;5092958;28;20051;-55
2022/06/30 05:57:08;;;;;;;10.57;9.68;;;;;;;28.03;100.00;98462.00;5093235;28;20140;-55
2022/06/30 05:59:34;;;;;;;10.25;9.30;;;;;;;28.07;100.00;98456.91;5092847;28;20077;-55
2022/06/30 06:02:01;;;;;;;10.90;9.82;;;;;;;28.43;100.00;98446.16;5093282;28;20579;-55
2022/06/30 06:04:27;;;;;;;9.45;8.63;;;;;;;28.92;100.00;98329.13;5092965;28;20051;-54
2022/06/30 06:06:54;;;;;;;10.13;9.15;;;;;;;28.12;100.00;98409.06;5092964;28;20502;-54
2022/06/30 06:09:21;;;;;;;9.70;9.00;;;;;;;28.81;100.00;98366.56;5092651;28;20506;-55
2022/06/30 06:11:48;;;;;;;9.65;8.65;;;;;;;29.47;100.00;98324.81;5092551;28;20498;-55
2022/06/30 06:14:14;;;;;;;9.30;8.40;;;;;;;29.35;100.00;98319.69;5092376;28;20544;-55
2022/06/30 06:16:40;;;;;;;8.02;7.32;;;;;;;29.10;100.00;98287.63;5092510;28;20136;-54
2022/06/30 06:19:06;;;;;;;8.43;7.43;;;;;;;29.73;100.00;98301.19;5092605;28;20060;-56
2022/06/30 06:21:36;;;;;;;8.80;7.38;;;;;;;30.17;100.00;98283.31;5092409;28;20052;-56
2022/06/30 06:24:02;;;;;;;8.55;7.75;;;;;;;29.90;100.00;98279.31;5092837;28;20100;-57
2022/06/30 06:26:28;;;;;;;11.52;6.93;;;;;;;29.84;100.00;98274.97;5092147;28;20047;-56
2022/06/30 06:29:08;;;;;;;7.57;6.75;;;;;;;29.53;100.00;98274.75;5092684;28;20052;-55
2022/06/30 06:31:36;;;;;;;8.60;6.82;;;;;;;29.86;100.00;98273.16;5092023;28;20502;-56
2022/06/30 06:34:03;;;;;;;8.45;7.72;;;;;;;30.31;100.00;98278.66;5092027;28;20052;-55
2022/06/30 06:36:30;;;;;;;8.60;7.28;;;;;;;30.95;100.00;98267.97;5092110;28;20147;-55
2022/06/30 06:38:57;;;;;;;11.07;7.40;;;;;;;30.57;100.00;98285.97;5092331;28;20507;-56
2022/06/30 06:41:24;;;;;;;8.23;7.53;;;;;;;30.07;100.00;98284.13;5092083;28;20143;-55
2022/06/30 06:43:51;;;;;;;8.43;7.50;;;;;;;31.12;100.00;98273.50;5091985;28;20139;-56
2022/06/30 06:46:19;;;;;;;7.78;6.97;;;;;;;31.45;100.00;98311.31;5091513;28;20094;-56
2022/06/30 06:48:45;;;;;;;7.65;6.68;;;;;;;31.15;100.00;98294.31;5091977;28;20048;-56
2022/06/30 06:51:12;;;;;;;8.23;7.43;;;;;;;30.57;100.00;98314.25;5092181;28;20090;-57
2022/06/30 06:53:38;;;;;;;7.57;6.88;;;;;;;29.98;100.00;98277.47;5091690;28;20139;-55
2022/06/30 06:56:07;;;;;;;7.88;7.03;;;;;;;30.05;100.00;98275.41;5092186;28;20571;-56
2022/06/30 06:58:34;;;;;;;10.13;7.13;;;;;;;30.48;100.00;98270.06;5091598;28;20052;-56
2022/06/30 07:01:00;;;;;;;8.18;6.50;;;;;;;31.06;100.00;98286.94;5091504;28;20118;-56
2022/06/30 07:03:29;;;;;;;7.00;6.40;;;;;;;30.63;100.00;98272.56;5091590;28;20051;-55
2022/06/30 07:05:55;;;;;;;8.00;7.30;;;;;;;31.28;100.00;98316.34;5091545;28;20058;-58
2022/06/30 07:08:21;;;;;;;7.18;6.40;;;;;;;31.68;100.00;98309.03;5091869;28;20468;-56
2022/06/30 07:10:47;;;;;;;8.45;6.93;;;;;;;32.11;100.00;98337.47;5091737;28;20098;-57
2022/06/30 07:13:14;;;;;;;7.43;6.70;;;;;;;31.84;100.00;98370.44;5091360;28;20055;-58
2022/06/30 07:15:40;;;;;;;9.98;6.60;;;;;;;32.38;100.00;98346.16;5091312;28;20048;-57
2022/06/30 07:18:06;;;;;;;7.00;6.40;;;;;;;31.13;100.00;98340.16;5091846;28;20102;-57
2022/06/30 07:20:33;;;;;;;7.00;6.40;;;;;;;30.73;100.00;98312.63;5091237;28;20082;-57
2022/06/30 07:23:00;;;;;;;8.07;6.07;;;;;;;30.65;100.00;98335.78;5091711;28;20052;-56
2022/06/30 07:25:26;;;;;;;7.28;6.35;;;;;;;30.44;100.00;98304.28;5091325;28;20048;-56
2022/06/30 07:27:52;;;;;;;7.40;6.45;;;;;;;30.61;100.00;98295.69;5091615;28;20048;-56
2022/06/30 07:30:18;;;;;;;6.20;5.68;;;;;;;31.33;100.00;98339.00;5091276;28;20143;-55
2022/06/30 07:32:44;;;;;;;6.65;6.00;;;;;;;30.98;100.00;98297.28;5091279;28;20052;-56
2022/06/30 07:35:11;;;;;;;8.25;6.47;;;;;;;30.28;100.00;98315.69;5091297;28;20048;-56
2022/06/30 07:37:38;;;;;;;6.32;5.72;;;;;;;31.30;100.00;98323.03;5091309;28;20088;-55
2022/06/30 07:40:06;;;;;;;9.55;6.20;;;;;;;32.37;100.00;98350.31;5091176;28;20063;-56
2022/06/30 07:42:32;;;;;;;7.70;5.80;;;;;;;31.69;100.00;98338.94;5091296;28;20056;-56
2022/06/30 07:44:58;;;;;;;7.28;6.55;;;;;;;32.16;100.00;98333.03;5091376;28;20052;-57
2022/06/30 07:47:25;;;;;;;6.10;5.60;;;;;;;32.52;100.00;98364.06;5090996;28;20506;-55
2022/06/30 07:49:51;;;;;;;7.30;5.88;;;;;;;31.48;100.00;98344.25;5091335;28;20048;-55
2022/06/30 07:52:17;;;;;;;7.35;6.50;;;;;;;30.93;100.00;98284.72;5090828;28;20052;-57
2022/06/30 07:54:44;;;;;;;8.95;6.75;;;;;;;31.87;100.00;98320.44;5091232;28;20083;-57
2022/06/30 07:57:12;;;;;;;6.68;5.97;;;;;;;30.78;100.00;98340.88;5090380;28;20052;-55
2022/06/30 07:59:38;;;;;;;6.28;5.50;;;;;;;30.51;100.00;98316.34;5090336;28;20094;-55
2022/06/30 08:02:05;;;;;;;6.05;5.40;;;;;;;30.82;100.00;98349.84;5091008;28;20130;-55
2022/06/30 08:04:33;;;;;;;5.88;5.28;;;;;;;31.07;100.00;98379.03;5090905;28;20139;-55
2022/06/30 08:07:01;;;;;;;6.38;5.05;;;;;;;29.99;100.00;98360.19;5090700;28;20135;-55
2022/06/30 08:09:28;;;;;;;6.47;5.00;;;;;;;31.87;100.00;98360.91;5090652;28;20444;-55
2022/06/30 08:11:55;;;;;;;4.70;4.40;;;;;;;31.55;100.00;98405.22;5091025;28;20447;-54
2022/06/30 08:14:21;;;;;;;6.22;4.80;;;;;;;30.67;100.00;98406.75;5090598;28;20108;-55
2022/06/30 08:16:47;;;;;;;7.43;4.68;;;;;;;30.86;100.00;98383.56;5090953;28;20108;-55
2022/06/30 08:19:14;;;;;;;6.95;5.10;;;;;;;31.51;100.00;98399.09;5090492;28;20048;-55
2022/06/30 08:21:40;;;;;;;7.47;4.50;;;;;;;32.27;100.00;98408.69;5091153;28;20086;-55
2022/06/30 08:24:07;;;;;;;6.10;5.38;;;;;;;32.07;100.00;98452.47;5090776;28;20581;-55
2022/06/30 08:26:33;;;;;;;6.05;5.35;;;;;;;31.13;100.00;98334.47;5090799;28;20459;-54
2022/06/30 08:29:00;;;;;;;7.53;5.72;;;;;;;31.26;100.00;98345.19;5090581;28;20052;-55
2022/06/30 08:31:27;;;;;;;6.88;5.85;;;;;;;32.07;100.00;98367.41;5090539;28;20109;-62
2022/06/30 08:33:54;;;;;;;9.43;5.82;;;;;;;31.48;100.00;98344.25;5090776;28;20075;-62
2022/06/30 08:36:20;;;;;;;6.97;5.47;;;;;;;32.38;100.00;98343.31;5090379;28;20135;-62
2022/06/30 08:38:47;;;;;;;8.88;6.15;;;;;;;32.53;100.00;98433.69;5090620;28;20135;-62
2022/06/30 08:44:00;;;;;;;10.35;6.10;;;;;;;30.18;100.00;98296.16;5090827;28;20047;-63
2022/06/30 08:46:30;;;;;;;7.07;6.05;;;;;;;29.87;100.00;98268.28;5090224;28;20109;-63
2022/06/30 08:48:58;;;;;;;7.95;5.80;;;;;;;29.81;100.00;98257.00;5090617;28;20427;-63
2022/06/30 08:51:28;;;;;;;12.82;7.18;;;;;;;29.93;100.00;98252.84;5090336;28;20513;-63
2022/06/30 08:53:59;;;;;;;6.82;6.32;;;;;;;30.26;100.00;98265.31;5090165;28;20052;-63
2022/06/30 08:56:29;;;;;;;7.40;6.30;;;;;;;31.72;100.00;98292.50;5090085;28;20419;-62
2022/06/30 08:58:56;;;;;;;8.13;6.32;;;;;;;31.56;100.00;98299.13;5090027;28;20047;-63
2022/06/30 09:01:24;;;;;;;8.27;6.03;;;;;;;31.77;100.00;98331.38;5090132;28;20060;-63
2022/06/30 09:03:50;;;;;;;7.28;5.80;;;;;;;32.73;100.00;98338.78;5089896;28;20062;-63
2022/06/30 09:06:17;;;;;;;10.57;6.50;;;;;;;31.69;100.00;98358.75;5089592;28;20522;-62
2022/06/30 09:08:43;;;;;;;6.80;5.70;;;;;;;32.36;100.00;98360.13;5089316;28;20068;-62
2022/06/30 09:11:09;;;;;;;7.32;6.10;;;;;;;32.33;100.00;98342.09;5090376;28;20523;-63
2022/06/30 09:13:41;;;;;;;11.02;5.93;;;;;;;32.26;100.00;98350.44;5089747;28;20052;-63
2022/06/30 09:16:07;;;;;;;6.63;6.03;;;;;;;31.22;100.00;98322.03;5090037;28;20078;-62
2022/06/30 09:18:34;;;;;;;7.38;5.90;;;;;;;30.67;100.00;98281.53;5089813;28;20109;-63
2022/06/30 09:21:14;;;;;;;7.20;5.60;;;;;;;30.19;100.00;98292.06;5089682;28;20055;-62
2022/06/30 09:23:43;;;;;;;8.48;6.72;;;;;;;30.95;100.00;98293.44;5090062;28;20147;-62
2022/06/30 09:26:15;;;;;;;7.28;6.53;;;;;;;31.12;100.00;98306.69;5089782;28;20098;-63
2022/06/30 09:28:43;;;;;;;8.30;6.03;;;;;;;31.00;100.00;98279.78;5089870;28;20139;-63
2022/06/30 09:31:09;;;;;;;7.38;5.70;;;;;;;30.52;100.00;98272.63;5089458;28;20056;-62
2022/06/30 09:33:39;;;;;;;6.97;5.55;;;;;;;30.84;100.00;98299.19;5089733;28;20051;-62
2022/06/30 09:36:22;;;;;;;10.65;5.80;;;;;;;31.33;100.00;98329.72;5089493;28;20048;-62
2022/06/30 09:39:02;;;;;;;7.13;5.90;;;;;;;31.16;100.00;98361.75;5089378;28;20139;-62
2022/06/30 09:41:29;;;;;;;7.60;5.70;;;;;;;31.99;100.00;98357.94;5089915;28;20090;-62
2022/06/30 09:43:56;;;;;;;6.63;5.70;;;;;;;31.46;100.00;98368.72;5089555;28;20044;-62
2022/06/30 09:46:23;;;;;;;8.00;6.20;;;;;;;32.03;100.00;98392.47;5089802;28;20060;-63
2022/06/30 09:48:50;;;;;;;5.50;5.00;;;;;;;32.40;100.00;98423.00;5089535;28;20373;-62
2022/06/30 09:51:17;;;;;;;6.10;5.20;;;;;;;31.75;100.00;98333.94;5089539;28;20400;-63
2022/06/30 09:54:03;;;;;;;6.68;5.78;;;;;;;31.55;100.00;98312.50;5089273;28;20084;-62
2022/06/30 09:56:30;;;;;;;8.02;6.10;;;;;;;30.77;100.00;98279.19;5089603;28;20051;-62
2022/06/30 09:58:56;;;;;;;5.90;5.40;;;;;;;30.76;100.00;98292.56;5089170;28;20078;-62
2022/06/30 10:01:22;;;;;;;5.53;5.07;;;;;;;30.91;100.00;98255.41;5089207;28;20097;-63
2022/06/30 10:03:59;;;;;;;6.90;5.05;;;;;;;31.32;100.00;98309.16;5089540;28;20052;-62
2022/06/30 10:06:25;;;;;;;6.72;5.20;;;;;;;31.21;100.00;98359.41;5089144;28;20052;-62
2022/06/30 10:08:52;;;;;;;5.90;4.78;;;;;;;30.44;100.00;98360.84;5089173;28;20052;-61
2022/06/30 10:11:19;;;;;;;5.93;4.72;;;;;;;30.90;100.00;98348.03;5088738;28;20052;-61
2022/06/30 10:13:47;;;;;;;8.38;5.05;;;;;;;30.61;100.00;98413.72;5088996;28;20087;-62
2022/06/30 10:16:16;;;;;;;5.43;4.78;;;;;;;30.20;100.00;98349.38;5088973;28;20048;-62
2022/06/30 10:18:42;;;;;;;5.03;4.63;;;;;;;30.55;100.00;98334.56;5089086;28;20087;-62
2022/06/30 10:21:10;;;;;;;7.70;4.60;;;;;;;29.61;100.00;98289.13;5089453;28;20484;-62
2022/06/30 10:23:37;;;;;;;5.15;4.65;;;;;;;29.98;100.00;98288.78;5092299;28;20048;-61
2022/06/30 10:26:06;;;;;;;5.47;4.55;;;;;;;30.22;100.00;98304.38;5092329;28;20075;-61
2022/06/30 10:28:33;;;;;;;6.13;4.93;;;;;;;29.62;100.00;98282.19;5092188;28;20048;-62
2022/06/30 10:31:07;;;;;;;5.43;4.93;;;;;;;29.95;100.00;98278.50;5092571;28;20052;-62
2022/06/30 10:33:42;;;;;;;4.70;4.30;;;;;;;29.90;100.00;98270.84;5092195;28;20182;-61
2022/06/30 10:36:14;;;;;;;5.57;4.80;;;;;;;29.88;100.00;98278.28;5092666;28;20131;-61
2022/06/30 10:38:51;;;;;;;6.10;4.53;;;;;;;29.95;100.00;98320.13;5092369;28;20048;-60
2022/06/30 10:41:18;;;;;;;9.70;5.07;;;;;;;30.12;100.00;98294.63;5092455;28;20309;-60
2022/06/30 10:44:14;;;;;;;8.43;4.90;;;;;;;29.71;100.00;98329.94;5092073;28;20063;-61
2022/06/30 10:47:17;;;;;;;10.05;4.90;;;;;;;29.63;100.00;98280.94;5091981;28;20502;-60
2022/06/30 10:49:58;;;;;;;5.63;4.80;;;;;;;29.05;100.00;98289.16;5092495;28;20537;-61
2022/06/30 10:52:28;;;;;;;5.30;4.80;;;;;;;29.74;100.00;98254.69;5091856;28;20044;-60
2022/06/30 10:55:05;;;;;;;8.43;4.95;;;;;;;30.14;100.00;98269.44;5091792;28;20521;-60
2022/06/30 10:58:00;;;;;;;5.30;4.88;;;;;;;29.23;100.00;98280.19;5091761;28;20062;-59
2022/06/30 11:00:45;;;;;;;6.70;4.93;;;;;;;29.70;100.00;98200.53;5091749;28;20052;-60
2022/06/30 11:03:59;;;;;;;4.70;4.30;;;;;;;29.07;100.00;98208.34;5092030;28;20513;-60
2022/06/30 11:06:56;;;;;;;4.90;4.33;;;;;;;29.35;100.00;98243.47;5091759;28;20162;-59
2022/06/30 11:10:05;;;;;;;6.75;4.60;;;;;;;29.55;100.00;98317.34;5091652;28;20048;-59
2022/06/30 11:13:08;;;;;;;4.72;3.83;;;;;;;29.00;100.00;98265.31;5091748;28;20450;-61
2022/06/30 11:15:54;;;;;;;5.32;4.50;;;;;;;29.54;100.00;98329.19;5069828;28;20056;-59
2022/06/30 11:18:21;;;;;;;4.47;4.03;;;;;;;29.34;100.00;98332.28;5091725;28;20090;-59
2022/06/30 11:20:49;;;;;;;4.68;3.97;;;;;;;29.51;100.00;98347.16;5091530;28;20091;-58
2022/06/30 11:23:19;;;;;;;4.72;4.30;;;;;;;29.12;100.00;98277.34;5091525;28;20412;-59
2022/06/30 11:28:33;;;;;;;3.95;3.67;;;;;;;29.40;100.00;98291.47;5091330;28;20541;-59
2022/06/30 11:30:59;;;;;;;4.63;4.25;;;;;;;29.30;100.00;98384.09;5091809;28;20059;-59
2022/06/30 11:33:25;;;;;;;5.70;3.97;;;;;;;29.16;100.00;98330.72;5091277;28;20147;-59
2022/06/30 11:36:09;;;;;;;5.13;3.88;;;;;;;29.47;100.00;98408.75;5091313;28;20472;-60
2022/06/30 11:38:37;;;;;;;4.35;4.05;;;;;;;29.18;100.00;98373.31;5091527;28;20056;-60
2022/06/30 11:43:52;;;;;;;5.45;4.13;;;;;;;29.10;100.00;98287.63;5091570;28;20568;-59